地図

経路データ

SID SEASON NUMBER BASIN SUBBASIN NAME ISO_TIME NATURE LAT LON WMO_WIND WMO_PRES WMO_AGENCY TRACK_TYPE DIST2LAND LANDFALL IFLAG USA_AGENCY USA_ATCF_ID USA_LAT USA_LON USA_RECORD USA_STATUS USA_WIND USA_PRES USA_SSHS USA_R34_NE USA_R34_SE USA_R34_SW USA_R34_NW USA_R50_NE USA_R50_SE USA_R50_SW USA_R50_NW USA_R64_NE USA_R64_SE USA_R64_SW USA_R64_NW USA_POCI USA_ROCI USA_RMW USA_EYE TOKYO_LAT TOKYO_LON TOKYO_GRADE TOKYO_WIND TOKYO_PRES TOKYO_R50_DIR TOKYO_R50_LONG TOKYO_R50_SHORT TOKYO_R30_DIR TOKYO_R30_LONG TOKYO_R30_SHORT TOKYO_LAND CMA_LAT CMA_LON CMA_CAT CMA_WIND CMA_PRES HKO_LAT HKO_LON HKO_CAT HKO_WIND HKO_PRES NEWDELHI_LAT NEWDELHI_LON NEWDELHI_GRADE NEWDELHI_WIND NEWDELHI_PRES NEWDELHI_CI NEWDELHI_DP NEWDELHI_POCI REUNION_LAT REUNION_LON REUNION_TYPE REUNION_WIND REUNION_PRES REUNION_TNUM REUNION_CI REUNION_RMW REUNION_R34_NE REUNION_R34_SE REUNION_R34_SW REUNION_R34_NW REUNION_R50_NE REUNION_R50_SE REUNION_R50_SW REUNION_R50_NW REUNION_R64_NE REUNION_R64_SE REUNION_R64_SW REUNION_R64_NW BOM_LAT BOM_LON BOM_TYPE BOM_WIND BOM_PRES BOM_TNUM BOM_CI BOM_RMW BOM_R34_NE BOM_R34_SE BOM_R34_SW BOM_R34_NW BOM_R50_NE BOM_R50_SE BOM_R50_SW BOM_R50_NW BOM_R64_NE BOM_R64_SE BOM_R64_SW BOM_R64_NW BOM_ROCI BOM_POCI BOM_EYE BOM_POS_METHOD BOM_PRES_METHOD NADI_LAT NADI_LON NADI_CAT NADI_WIND NADI_PRES WELLINGTON_LAT WELLINGTON_LON WELLINGTON_WIND WELLINGTON_PRES DS824_LAT DS824_LON DS824_STAGE DS824_WIND DS824_PRES TD9636_LAT TD9636_LON TD9636_STAGE TD9636_WIND TD9636_PRES TD9635_LAT TD9635_LON TD9635_WIND TD9635_PRES TD9635_ROCI NEUMANN_LAT NEUMANN_LON NEUMANN_CLASS NEUMANN_WIND NEUMANN_PRES MLC_LAT MLC_LON MLC_CLASS MLC_WIND MLC_PRES USA_GUST BOM_GUST BOM_GUST_PER REUNION_GUST REUNION_GUST_PER USA_SEAHGT USA_SEARAD_NE USA_SEARAD_SE USA_SEARAD_SW USA_SEARAD_NW STORM_SPEED STORM_DIR
2020093S13070 2020 13 SI MM IRONDRO 2020-04-02 06:00:00 NR -13.1000 69.5000 PROVISIONAL 1480 1480 O_____________ tcvitals SI242020 -13.1000 69.5000 35 997 0 126 25 75 100 1004 190 45 1 0
2020093S13070 2020 13 SI MM IRONDRO 2020-04-02 09:00:00 NR -13.0569 69.4885 PROVISIONAL 1480 1480 P_____________ SI242020 -13.0569 69.4885 37 996 0 126 25 75 100 1004 190 42 4 124
2020093S13070 2020 13 SI MM IRONDRO 2020-04-02 12:00:00 NR -13.3000 69.8000 PROVISIONAL 1495 1495 O_____________ tcvitals SI242020 -13.3000 69.8000 39 995 0 126 25 75 100 1004 190 40 15 131
2020093S13070 2020 13 SI MM IRONDRO 2020-04-02 15:00:00 NR -14.0035 70.6236 PROVISIONAL 1531 1531 P_____________ SI242020 -14.0035 70.6236 42 994 0 128 52 120 1004 200 45 24 132
2020093S13070 2020 13 SI MM IRONDRO 2020-04-02 18:00:00 NR -14.9000 71.6000 PROVISIONAL 1581 1581 O_____________ tcvitals SI242020 -14.9000 71.6000 45 993 0 130 80 140 1004 210 50 24 135
2020093S13070 2020 13 SI MM IRONDRO 2020-04-02 21:00:00 NR -15.6873 72.3549 PROVISIONAL 1626 1622 P_____________ SI242020 -15.6873 72.3549 48 992 0 130 80 137 1003 210 35 20 140
2020093S13070 2020 13 SI MM IRONDRO 2020-04-03 00:00:00 NR -16.4000 72.9000 PROVISIONAL 1651 1648 O_____________ tcvitals SI242020 -16.4000 72.9000 51 991 0 130 80 55 135 1003 210 20 15 150
2020093S13070 2020 13 SI MM IRONDRO 2020-04-03 03:00:00 NR -16.9795 73.1312 PROVISIONAL 1653 1652 P_____________ SI242020 -16.9795 73.1312 52 989 0 140 97 95 137 1003 210 22 12 161
2020093S13070 2020 13 SI MM IRONDRO 2020-04-03 06:00:00 NR -17.5000 73.3000 PROVISIONAL 1659 1657 O_____________ tcvitals SI242020 -17.5000 73.3000 54 987 0 150 115 135 140 1003 210 25 12 155
2020093S13070 2020 13 SI MM IRONDRO 2020-04-03 09:00:00 NR -18.0646 73.6603 PROVISIONAL 1687 1684 P_____________ SI242020 -18.0646 73.6603 57 985 0 155 120 110 133 1002 210 22 14 142
2020093S13070 2020 13 SI MM IRONDRO 2020-04-03 12:00:00 NR -18.6000 74.2000 PROVISIONAL 1729 1729 O_____________ tcvitals SI242020 -18.6000 74.2000 60 984 0 160 126 85 126 1002 210 20 16 128
2020093S13070 2020 13 SI MM IRONDRO 2020-04-03 15:00:00 NR -19.0357 74.9926 PROVISIONAL 1806 1804 P_____________ SI242020 -19.0357 74.9926 67 979 1 167 143 125 126 1003 210 25 18 121
2020093S13070 2020 13 SI MM IRONDRO 2020-04-03 18:00:00 NR -19.5000 75.8000 PROVISIONAL 1883 1883 O_____________ tcvitals SI242020 -19.5000 75.8000 74 975 1 175 160 165 126 1004 210 30 17 132
2020093S13070 2020 13 SI MM IRONDRO 2020-04-03 21:00:00 NR -20.1640 76.3079 PROVISIONAL 1928 1928 P_____________ SI242020 -20.1640 76.3079 81 968 1 177 160 160 130 1003 217 18 16 144
2020093S13070 2020 13 SI MM IRONDRO 2020-04-04 00:00:00 NR -20.8000 76.8000 PROVISIONAL 1977 1977 O_____________ tcvitals SI242020 -20.8000 76.8000 89 962 2 180 160 155 135 1003 225 6 15 131
2020093S13070 2020 13 SI MM IRONDRO 2020-04-04 03:00:00 NR -21.1805 77.5431 PROVISIONAL 2049 2049 P_____________ SI242020 -21.1805 77.5431 91 960 2 177 170 147 152 1004 225 5 16 117
2020093S13070 2020 13 SI MM IRONDRO 2020-04-04 06:00:00 NR -21.5000 78.3000 PROVISIONAL 2131 2131 O_____________ tcvitals SI242020 -21.5000 78.3000 93 959 2 175 180 140 170 1005 225 5 14 123
2020093S13070 2020 13 SI MM IRONDRO 2020-04-04 09:00:00 NR -21.9566 78.8504 PROVISIONAL 2194 2194 P_____________ SI242020 -21.9566 78.8504 93 958 2 175 180 140 170 1005 225 5 14 131
2020093S13070 2020 13 SI MM IRONDRO 2020-04-04 12:00:00 NR -22.4000 79.4000 PROVISIONAL 2246 2246 O_____________ tcvitals SI242020 -22.4000 79.4000 93 958 2 175 180 140 170 1005 225 5 14 123
2020093S13070 2020 13 SI MM IRONDRO 2020-04-04 15:00:00 NR -22.7149 80.1131 PROVISIONAL 2319 2319 P_____________ SI242020 -22.7149 80.1131 93 958 2 177 185 150 162 1005 232 5 15 113
2020093S13070 2020 13 SI MM IRONDRO 2020-04-04 18:00:00 NR -23.0000 80.9000 PROVISIONAL 2403 2403 O_____________ tcvitals SI242020 -23.0000 80.9000 93 958 2 180 190 160 155 1005 240 5 16 114
2020093S13070 2020 13 SI MM IRONDRO 2020-04-04 21:00:00 NR -23.3570 81.6776 PROVISIONAL 2487 2487 P_____________ SI242020 -23.3570 81.6776 91 959 2 180 182 150 150 1005 240 5 16 115
2020093S13070 2020 13 SI MM IRONDRO 2020-04-05 00:00:00 NR -23.7000 82.5000 PROVISIONAL 2570 2570 O_____________ tcvitals SI242020 -23.7000 82.5000 89 961 2 180 175 140 145 1006 240 5 17 112
2020093S13070 2020 13 SI MM IRONDRO 2020-04-05 03:00:00 NR -23.9795 83.3703 PROVISIONAL 2664 2664 P_____________ SI242020 -23.9795 83.3703 84 965 2 170 167 157 145 1006 240 5 17 107
2020093S13070 2020 13 SI MM IRONDRO 2020-04-05 06:00:00 NR -24.2000 84.3000 PROVISIONAL 2756 2756 O_____________ tcvitals SI242020 -24.2000 84.3000 80 970 1 160 160 175 145 1007 240 5 18 103
2020093S13070 2020 13 SI MM IRONDRO 2020-04-05 09:00:00 NR -24.3642 85.2631 PROVISIONAL 2814 2722 P_____________ SI242020 -24.3642 85.2631 72 976 1 152 135 132 130 1006 240 15 18 99
2020093S13070 2020 13 SI MM IRONDRO 2020-04-05 12:00:00 NR -24.5000 86.3000 PROVISIONAL 2712 2593 O_____________ tcvitals SI242020 -24.5000 86.3000 64 982 1 145 110 90 115 1006 240 25 21 95
2020093S13070 2020 13 SI MM IRONDRO 2020-04-05 15:00:00 NR -24.5547 87.6077 PROVISIONAL 2581 2477 P_____________ SI242020 -24.5547 87.6077 59 985 0 132 120 95 102 1006 245 27 21 98
2020093S13070 2020 13 SI MM IRONDRO 2020-04-05 18:00:00 NR -24.8000 88.6000 PROVISIONAL 2477 2456 O_____________ tcvitals SI242020 -24.8000 88.6000 54 988 0 120 130 100 90 1006 250 30 14 138
2020093S13070 2020 13 SI MM IRONDRO 2020-04-05 21:00:00 NR -25.5985 88.6500 PROVISIONAL 2455 2455 P_____________ SI242020 -25.5985 88.6500 49 990 0 95 115 90 77 1006 250 32 16 183
2020093S13070 2020 13 SI MM IRONDRO 2020-04-06 00:00:00 NR -26.4000 88.5000 PROVISIONAL 2465 2432 O_____________ tcvitals SI242020 -26.4000 88.5000 45 992 0 70 100 80 65 1006 250 35 11 173
2020093S13070 2020 13 SI MM IRONDRO 2020-04-06 03:00:00 NR -26.6683 88.7974 PROVISIONAL 2432 2373 P_____________ SI242020 -26.6683 88.7974 42 992 0 105 117 107 102 1006 242 55 9 109
2020093S13070 2020 13 SI MM IRONDRO 2020-04-06 06:00:00 NR -26.7000 89.5000 PROVISIONAL 2363 2245 O_____________ tcvitals SI242020 -26.7000 89.5000 39 993 0 140 135 135 140 1006 235 75 17 88
2020093S13070 2020 13 SI WA IRONDRO 2020-04-06 09:00:00 NR -26.6131 90.7511 PROVISIONAL 2235 2115 P_____________ SI242020 -26.6131 90.7511 37 996 0 110 112 107 110 1006 235 75 23 90
2020093S13070 2020 13 SI WA IRONDRO 2020-04-06 12:00:00 NR -26.7000 92.1000 PROVISIONAL 2105 2023 O_____________ tcvitals SI242020 -26.7000 92.1000 35 999 0 80 90 80 80 1006 235 75 21 111
2020093S13070 2020 13 SI WA IRONDRO 2020-04-06 15:00:00 NR -27.3718 92.9567 PROVISIONAL 2013 1944 P_____________ SI242020 -27.3718 92.9567 32 998 -1 1005 217 72 21 135
2020093S13070 2020 13 SI WA IRONDRO 2020-04-06 18:00:00 NR -28.2000 93.8000 PROVISIONAL 1935 1831 O_____________ tcvitals SI242020 -28.2000 93.8000 29 998 -1 1004 200 70 23 129
2020093S13070 2020 13 SI WA IRONDRO 2020-04-06 21:00:00 NR -28.7919 94.9464 PROVISIONAL 1831 1710 P_____________ SI242020 -28.7919 94.9464 29 996 -1 1002 187 72 24 115
2020093S13070 2020 13 SI WA IRONDRO 2020-04-07 00:00:00 NR -29.2000 96.3000 PROVISIONAL 1700 O_____________ tcvitals SI242020 -29.2000 96.3000 29 995 -1 1001 175 75 25 109

IBTrACS Databaseについて

本データベースは、米国NOAAが公開する1842年以降の世界の熱帯低気圧のベストトラックデータアーカイブInternational Best Track Archive for Climate Stewardship (IBTrACS)を、ウェブで閲覧しやすい形式に変換したものです。

最終更新日:2021-12-01